Flight Track Log - Related Links

Times and Time Zones

All times are in EDT time to prevent confusion due to time zone crossing. See the DAL1283 flight status page for this flight to view local times or setup timezone preferences in your user account.

Time Position Orientation Groundspeed Altitude Reporting Facility
EDT Latitude Longitude Course Direction KTS MPH feet Rate Location/Type
Mon 06:50:37 PM 44.8500 -93.2333 120° Southeast 172 198 2,400  Level Minneapolis TRACON
Mon 06:51:03 PM 44.8319 -93.2033 130° Southeast 197 227 3,100 2,795 Climbing Minneapolis Center
Mon 06:52:05 PM 44.7822 -93.1300 134° Southeast 253 291 6,500 3,097 Climbing Minneapolis Center
Mon 06:53:00 PM 44.6273 -92.8371 141° Southeast  Level Estimated
Mon 06:53:07 PM 44.7364 -93.0375 125° Southeast 287 330 9,500  Level Minneapolis Center
Mon 06:54:00 PM 44.5422 -92.7096 137° Southeast  Level Estimated
Mon 06:54:09 PM 44.6775 -92.9381 130° Southeast 342 394 11,500  Level Minneapolis Center
Mon 06:55:00 PM 44.4569 -92.5825 120° Southeast  Level Estimated
Mon 06:55:10 PM 44.6000 -92.8250 134° Southeast 404 465 14,000  Level Minneapolis Center
Mon 06:56:12 PM 44.5208 -92.7094 134° Southeast 409 471 17,600 3,000 Climbing Minneapolis Center
Mon 06:57:14 PM 44.4397 -92.5933 134° Southeast 416 479 20,200 2,371 Climbing Minneapolis Center
Mon 06:58:16 PM 44.3553 -92.4706 134° Southeast 436 502 22,500 2,274 Climbing Minneapolis Center
Mon 06:59:18 PM 44.2711 -92.2897 123° Southeast 466 536 24,900 2,000 Climbing Minneapolis Center
Mon 07:00:19 PM 44.2025 -92.1328 121° Southeast 476 548 26,600 2,098 Climbing Minneapolis Center
Mon 07:01:21 PM 44.1347 -91.9764 121° Southeast 476 548 29,200 2,081 Climbing Minneapolis Center
Mon 07:02:23 PM 44.0625 -91.8242 123° Southeast 474 545 30,900 1,597 Climbing Minneapolis Center
Mon 07:03:25 PM 43.9714 -91.6942 134° Southeast 471 542 32,500 926 Climbing Minneapolis Center
Mon 07:04:39 PM 43.8714 -91.5442 133° Southeast 473 544 33,000 221 Climbing Minneapolis Center
Mon 07:05:41 PM 43.7653 -91.3883 133° Southeast 468 539 33,000  Level Minneapolis Center
Mon 07:06:42 PM 43.6769 -91.2597 133° Southeast 466 536 33,000  Level Minneapolis Center
Mon 07:07:44 PM 43.5889 -91.1328 134° Southeast 462 532 33,000  Level Minneapolis Center
Mon 07:08:46 PM 43.5008 -91.0053 134° Southeast 461 531 33,000  Level Minneapolis Center
Mon 07:09:48 PM 43.3931 -90.8531 134° Southeast 463 533 33,000  Level Minneapolis Center
Mon 07:10:49 PM 43.3044 -90.7261 134° Southeast 463 533 33,000  Level Minneapolis Center
Mon 07:11:51 PM 43.2150 -90.5989 134° Southeast 463 533 33,000  Level Minneapolis Center
Mon 07:12:30 PM 43.1622 -90.5247 134° Southeast 465 535 33,000  Level Chicago Center
Mon 07:13:32 PM 43.0717 -90.3981 134° Southeast 467 537 33,000  Level Chicago Center
Mon 07:14:34 PM 42.9831 -90.2711 134° Southeast 466 536 33,000  Level Chicago Center
Mon 07:15:36 PM 42.8742 -90.1169 134° Southeast 474 545 33,000  Level Chicago Center
Mon 07:16:38 PM 42.7817 -89.9875 134° Southeast 477 549 33,000  Level Chicago Center
Mon 07:17:40 PM 42.6925 -89.8650 135° Southeast 475 547 33,000  Level Chicago Center
Mon 07:18:42 PM 42.5856 -89.7169 134° Southeast 471 542 33,000  Level Chicago Center
Mon 07:19:44 PM 42.4933 -89.5906 135° Southeast 471 542 33,000  Level Chicago Center
Mon 07:20:46 PM 42.4014 -89.4636 134° Southeast 472 543 33,000 -290 Level Chicago Center
Mon 07:21:48 PM 42.3083 -89.3375 135° Southeast 474 545 32,400 -871 Descending Chicago Center
Mon 07:22:50 PM 42.2153 -89.2139 135° Southeast 470 541 31,200 -677 Descending Chicago Center
Mon 07:23:52 PM 42.1003 -89.0797 139° Southeast 469 540 31,000 -98 Descending Chicago Center
Mon 07:24:53 PM 42.0167 -88.9817 139° Southeast 474 545 31,000  Level Chicago Center
Mon 07:25:55 PM 41.8992 -88.8425 139° Southeast 473 544 31,000  Level Chicago Center
Mon 07:26:57 PM 41.8019 -88.7278 139° Southeast 471 542 31,000  Level Chicago Center
Mon 07:27:59 PM 41.7036 -88.6136 139° Southeast 471 542 31,000  Level Chicago Center
Mon 07:29:01 PM 41.6061 -88.4981 138° Southeast 474 545 31,000 -387 Level Chicago Center
Mon 07:30:03 PM 41.5083 -88.3850 139° Southeast 470 541 30,200 -968 Descending Chicago Center
Mon 07:31:05 PM 41.3892 -88.2492 139° Southeast 479 551 29,000 -581 Descending Chicago Center
Mon 07:32:07 PM 41.2908 -88.1361 139° Southeast 482 555 29,000  Level Chicago Center
Mon 07:33:09 PM 41.1925 -88.0225 139° Southeast 482 555 29,000  Level Chicago Center
Mon 07:34:11 PM 41.0728 -87.8861 139° Southeast 478 550 29,000  Level Chicago Center
Mon 07:35:13 PM 40.9736 -87.7725 139° Southeast 477 549 29,000 -726 Level Chicago Center
Mon 07:36:15 PM 40.8742 -87.6597 139° Southeast 474 545 27,500 -1,694 Descending Chicago Center
Mon 07:37:17 PM 40.7742 -87.5469 139° Southeast 477 549 25,500 -1,839 Descending Chicago Center
Mon 07:38:19 PM 40.6731 -87.4375 141° Southeast 473 544 23,700 -2,032 Descending Chicago Center
Mon 07:39:21 PM 40.5558 -87.3078 140° Southeast 461 531 21,300 -2,226 Descending Chicago Center
Mon 07:40:23 PM 40.4619 -87.1997 139° Southeast 454 522 19,100 -2,081 Descending Chicago Center
Mon 07:41:25 PM 40.3792 -87.1092 140° Southeast 435 501 17,000 -2,323 Descending Chicago Center
Mon 07:42:27 PM 40.2719 -86.9917 140° Southeast 428 493 14,300 -1,935 Descending Chicago Center
Mon 07:43:29 PM 40.1822 -86.8931 140° Southeast 422 486 13,000 -1,016 Descending Chicago Center
Mon 07:44:31 PM 40.1036 -86.7939 136° Southeast 393 452 12,200 -867 Descending Chicago Center
Mon 07:44:52 PM 40.0792 -86.7617 135° Southeast 383 441 11,800 -1,390 Descending Indianapolis Center
Mon 07:45:53 PM 40.0133 -86.6761 135° Southeast 343 395 10,300 -1,366 Descending Indianapolis Center
Mon 07:46:55 PM 39.9508 -86.5947 135° Southeast 324 373 9,000 -1,403 Descending Indianapolis Center
Mon 07:47:57 PM 39.8922 -86.5211 136° Southeast 301 346 7,400 -968 Descending Indianapolis Center
Mon 07:48:59 PM 39.8256 -86.4339 135° Southeast 291 335 7,000 -488 Descending Indianapolis Center
Mon 07:50:00 PM 39.7842 -86.3475 122° Southeast 292 336 6,400 -1,220 Descending Indianapolis Center
Mon 07:51:02 PM 39.8311 -86.2669 53° Northeast 277 319 4,500 -1,452 Descending Indianapolis Center
Mon 07:52:04 PM 39.8361 -86.1942 85° East 245 282 3,400 -878 Descending Indianapolis Center
Mon 07:53:05 PM 39.7864 -86.1942 180° South 212 244 2,700 -689 Descending Indianapolis Center

Login

Don't have an account? Register now (free) for customized features, flight alerts, and more!